createdAt,value
2022-10-30T00:00:35.551Z,58.75
2022-10-30T00:03:02.549Z,58.93
2022-10-30T00:05:28.228Z,59.18
2022-10-30T00:07:54.592Z,59.08
2022-10-30T00:10:20.906Z,59.04
2022-10-30T00:12:47.217Z,59.00
2022-10-30T00:15:13.567Z,59.00
2022-10-30T00:17:39.884Z,59.45
2022-10-30T00:20:06.208Z,59.50
2022-10-30T00:22:32.533Z,59.53
2022-10-30T00:24:58.881Z,59.60
2022-10-30T00:27:25.217Z,59.67
2022-10-30T00:29:51.586Z,59.74
2022-10-30T00:32:17.904Z,59.76
2022-10-30T00:34:44.230Z,59.85
2022-10-30T00:37:10.576Z,59.95
2022-10-30T00:39:36.942Z,60.01
2022-10-30T00:42:03.261Z,60.05
2022-10-30T00:44:29.604Z,60.03
2022-10-30T00:46:55.931Z,60.96
2022-10-30T00:49:22.254Z,61.34
2022-10-30T00:51:48.573Z,60.92
2022-10-30T00:54:14.894Z,60.58
2022-10-30T00:56:41.237Z,60.47
2022-10-30T00:59:07.559Z,60.45
2022-10-30T01:01:33.989Z,60.37
2022-10-30T01:04:00.243Z,60.49
2022-10-30T01:06:26.684Z,60.68
2022-10-30T01:08:57.059Z,60.75
2022-10-30T01:11:19.254Z,60.82
2022-10-30T01:13:45.571Z,61.01
2022-10-30T01:16:11.924Z,61.02
2022-10-30T01:18:38.241Z,61.07
2022-10-30T01:21:04.560Z,60.91
2022-10-30T01:23:30.918Z,60.74
2022-10-30T01:25:57.233Z,60.96
2022-10-30T01:28:23.564Z,60.63
2022-10-30T01:30:49.912Z,60.61
2022-10-30T01:33:16.243Z,60.77
2022-10-30T01:35:42.566Z,60.81
2022-10-30T01:38:08.912Z,60.81
2022-10-30T01:40:35.236Z,60.98
2022-10-30T01:43:01.562Z,61.03
2022-10-30T01:45:27.945Z,61.08
2022-10-30T01:47:54.264Z,60.97
2022-10-30T01:50:20.602Z,60.87
2022-10-30T01:52:46.989Z,61.03
2022-10-30T01:55:13.321Z,61.23
2022-10-30T01:57:39.665Z,61.19
2022-10-30T02:00:05.990Z,61.22
2022-10-30T02:02:32.413Z,61.34
2022-10-30T02:04:58.687Z,61.42
2022-10-30T02:07:25.028Z,61.57
2022-10-30T02:09:51.397Z,62.10
2022-10-30T02:12:17.722Z,62.19
2022-10-30T02:14:44.060Z,61.90
2022-10-30T02:17:10.382Z,61.64
2022-10-30T02:19:36.746Z,61.79
2022-10-30T02:22:03.164Z,61.86
2022-10-30T02:24:29.420Z,62.40
2022-10-30T02:26:55.759Z,62.82
2022-10-30T02:29:22.070Z,62.84
2022-10-30T02:31:48.394Z,62.95
2022-10-30T02:34:14.739Z,63.13
2022-10-30T02:36:41.102Z,63.03
2022-10-30T02:39:07.416Z,62.97
2022-10-30T02:41:33.748Z,63.00
2022-10-30T02:44:00.069Z,62.77
2022-10-30T02:46:26.395Z,62.78
2022-10-30T02:48:52.733Z,62.83
2022-10-30T02:51:19.100Z,62.72
2022-10-30T02:53:45.384Z,62.87
2022-10-30T02:56:11.739Z,62.91
2022-10-30T02:58:38.082Z,62.76
2022-10-30T03:01:04.442Z,62.59
2022-10-30T03:03:30.749Z,62.79
2022-10-30T03:05:57.096Z,62.73
2022-10-30T03:08:23.418Z,62.82
2022-10-30T03:10:49.763Z,62.85
2022-10-30T03:13:16.101Z,62.86
2022-10-30T03:15:42.473Z,62.94
2022-10-30T03:18:08.815Z,62.81
2022-10-30T03:20:35.164Z,62.99
2022-10-30T03:23:01.511Z,63.22
2022-10-30T03:25:27.828Z,62.84
2022-10-30T03:27:54.177Z,62.68
2022-10-30T03:30:20.520Z,62.47
2022-10-30T03:32:46.848Z,62.74
2022-10-30T03:35:13.171Z,62.84
2022-10-30T03:37:39.514Z,62.51
2022-10-30T03:40:05.863Z,62.42
2022-10-30T03:42:32.201Z,62.55
2022-10-30T03:44:58.539Z,62.70
2022-10-30T03:47:24.860Z,62.75
2022-10-30T03:49:51.192Z,62.77
2022-10-30T03:52:17.517Z,62.85
2022-10-30T03:54:43.871Z,62.99
2022-10-30T03:57:10.211Z,63.23
2022-10-30T03:59:36.558Z,62.77
2022-10-30T04:02:03.045Z,62.67
2022-10-30T04:04:29.254Z,62.75
2022-10-30T04:06:55.587Z,62.94
2022-10-30T04:09:21.896Z,62.60
2022-10-30T04:11:48.242Z,62.53
2022-10-30T04:14:14.584Z,62.33
2022-10-30T04:16:40.920Z,62.39
2022-10-30T04:19:07.242Z,62.40
2022-10-30T04:21:33.580Z,62.74
2022-10-30T04:23:59.927Z,62.48
2022-10-30T04:26:26.259Z,62.44
2022-10-30T04:28:52.610Z,62.13
2022-10-30T04:31:18.963Z,62.12
2022-10-30T04:33:45.271Z,62.51
2022-10-30T04:36:11.592Z,62.63
2022-10-30T04:38:37.944Z,62.62
2022-10-30T04:41:04.086Z,62.35
2022-10-30T04:43:30.407Z,62.65
2022-10-30T04:45:56.744Z,62.78
2022-10-30T04:48:23.087Z,63.00
2022-10-30T04:50:49.401Z,63.04
2022-10-30T04:53:15.726Z,63.13
2022-10-30T04:55:42.070Z,63.39
2022-10-30T04:58:08.413Z,63.55
2022-10-30T05:00:34.753Z,63.83
2022-10-30T05:03:01.115Z,63.91
2022-10-30T05:05:27.435Z,64.19
2022-10-30T05:07:53.769Z,64.15
2022-10-30T05:10:20.137Z,64.25
2022-10-30T05:12:46.478Z,64.20
2022-10-30T05:15:12.813Z,64.17
2022-10-30T05:17:39.163Z,64.02
2022-10-30T05:20:05.504Z,63.94
2022-10-30T05:22:31.843Z,63.84
2022-10-30T05:24:58.202Z,63.69
2022-10-30T05:27:24.547Z,63.62
2022-10-30T05:29:50.870Z,63.69
2022-10-30T05:32:17.256Z,63.38
2022-10-30T05:34:43.568Z,63.26
2022-10-30T05:37:09.918Z,63.05
2022-10-30T05:39:36.277Z,62.78
2022-10-30T05:42:02.616Z,62.59
2022-10-30T05:44:54.782Z,62.57
2022-10-30T05:49:21.620Z,61.99
2022-10-30T05:51:47.946Z,61.60
2022-10-30T05:54:14.290Z,60.99
2022-10-30T05:56:40.637Z,60.28
2022-10-30T05:59:10.820Z,60.21
2022-10-30T06:01:37.243Z,59.96
2022-10-30T06:04:03.524Z,59.46
2022-10-30T06:06:29.868Z,59.01
2022-10-30T06:08:56.224Z,58.88
2022-10-30T06:11:22.580Z,58.64
2022-10-30T06:13:48.928Z,57.81
2022-10-30T06:16:15.273Z,57.57
2022-10-30T06:18:41.584Z,57.28
2022-10-30T06:21:08.369Z,56.79
2022-10-30T06:23:34.692Z,56.02
2022-10-30T06:26:01.054Z,55.90
2022-10-30T06:28:27.384Z,55.90
2022-10-30T06:30:53.716Z,55.67
2022-10-30T06:33:20.393Z,54.91
2022-10-30T06:35:46.738Z,54.47
2022-10-30T06:38:13.072Z,54.38
2022-10-30T06:40:39.424Z,54.37
2022-10-30T06:43:05.793Z,53.48
2022-10-30T06:45:32.128Z,53.43
2022-10-30T06:47:58.727Z,52.77
2022-10-30T06:50:24.827Z,52.89
2022-10-30T06:52:51.165Z,52.73
2022-10-30T06:55:17.505Z,51.80
2022-10-30T06:57:43.843Z,51.57
2022-10-30T07:00:10.204Z,51.92
2022-10-30T07:02:36.569Z,50.91
2022-10-30T07:05:02.958Z,50.32
2022-10-30T07:07:29.322Z,50.16
2022-10-30T07:09:55.700Z,50.01
2022-10-30T07:12:22.098Z,49.92
2022-10-30T07:14:48.495Z,49.68
2022-10-30T07:17:14.962Z,48.97
2022-10-30T07:19:41.293Z,49.42
2022-10-30T07:22:07.704Z,49.58
2022-10-30T07:24:34.025Z,48.24
2022-10-30T07:27:00.616Z,48.12
2022-10-30T07:29:26.975Z,47.49
2022-10-30T07:32:06.550Z,47.80
2022-10-30T07:34:19.697Z,47.17
2022-10-30T07:36:46.018Z,47.50
2022-10-30T07:39:12.410Z,47.32
2022-10-30T07:41:38.729Z,47.02
2022-10-30T07:44:05.058Z,46.19
2022-10-30T07:46:31.411Z,45.64
2022-10-30T07:48:57.732Z,46.49
2022-10-30T07:51:24.160Z,46.32
2022-10-30T07:53:50.472Z,46.12
2022-10-30T07:56:16.819Z,45.46
2022-10-30T07:58:45.678Z,48.40
2022-10-30T08:01:09.585Z,48.39
2022-10-30T08:03:35.795Z,48.42
2022-10-30T08:06:02.245Z,48.32
2022-10-30T08:08:28.499Z,47.81
2022-10-30T08:10:54.836Z,47.31
2022-10-30T08:13:21.222Z,46.70
2022-10-30T08:15:47.571Z,45.34
2022-10-30T08:18:13.908Z,45.58
2022-10-30T08:20:40.310Z,45.63
2022-10-30T08:23:06.576Z,45.40
2022-10-30T08:25:32.892Z,44.17
2022-10-30T08:27:59.244Z,43.30
2022-10-30T08:30:25.584Z,43.28
2022-10-30T08:32:51.946Z,43.65
2022-10-30T08:35:20.068Z,43.11
2022-10-30T08:37:44.642Z,42.33
2022-10-30T08:40:10.982Z,42.46
2022-10-30T08:42:37.336Z,41.98
2022-10-30T08:45:03.668Z,45.27
2022-10-30T08:47:30.035Z,45.14
2022-10-30T08:49:56.366Z,45.29
2022-10-30T08:52:22.692Z,44.47
2022-10-30T08:54:49.027Z,42.89
2022-10-30T08:57:15.343Z,42.96
2022-10-30T08:59:41.740Z,42.75
2022-10-30T09:02:08.159Z,42.55
2022-10-30T09:04:34.394Z,41.69
2022-10-30T09:07:00.738Z,42.47
2022-10-30T09:09:27.076Z,42.18
2022-10-30T09:11:53.415Z,41.58
2022-10-30T09:14:19.774Z,41.50
2022-10-30T09:16:46.101Z,41.22
2022-10-30T09:19:17.675Z,40.42
2022-10-30T09:21:38.771Z,40.28
2022-10-30T09:24:05.127Z,40.13
2022-10-30T09:26:31.448Z,39.98
2022-10-30T09:28:57.801Z,39.84
2022-10-30T09:31:24.152Z,39.18
2022-10-30T09:33:50.503Z,38.75
2022-10-30T09:36:19.657Z,38.13
2022-10-30T09:38:43.173Z,37.98
2022-10-30T09:41:09.539Z,38.62
2022-10-30T09:43:35.889Z,38.82
2022-10-30T09:46:02.219Z,37.83
2022-10-30T09:48:28.546Z,37.76
2022-10-30T09:50:54.866Z,37.44
2022-10-30T09:53:21.197Z,37.40
2022-10-30T09:55:47.544Z,37.30
2022-10-30T09:58:13.908Z,36.87
2022-10-30T10:00:40.234Z,38.52
2022-10-30T10:03:06.549Z,38.34
2022-10-30T10:05:32.927Z,40.56
2022-10-30T10:07:59.749Z,40.61
2022-10-30T10:10:25.617Z,43.37
2022-10-30T10:12:53.869Z,45.05
2022-10-30T10:15:18.263Z,47.00
2022-10-30T10:17:44.613Z,45.91
2022-10-30T10:20:10.968Z,46.43
2022-10-30T10:22:37.318Z,44.82
2022-10-30T10:25:03.656Z,46.03
2022-10-30T10:27:30.001Z,46.00
2022-10-30T10:29:56.368Z,45.94
2022-10-30T10:32:22.690Z,46.40
2022-10-30T10:34:49.032Z,46.40
2022-10-30T10:37:15.383Z,46.53
2022-10-30T10:39:41.724Z,46.86
2022-10-30T10:42:08.045Z,47.84
2022-10-30T10:44:34.391Z,47.36
2022-10-30T10:47:06.010Z,46.17
2022-10-30T10:49:27.072Z,46.23
2022-10-30T10:51:53.389Z,46.17
2022-10-30T10:54:19.807Z,47.14
2022-10-30T10:56:46.523Z,47.57
2022-10-30T10:59:12.839Z,47.28
2022-10-30T11:01:39.269Z,46.16
2022-10-30T11:04:05.527Z,45.66
2022-10-30T11:06:31.865Z,43.59
2022-10-30T11:08:58.215Z,43.33
2022-10-30T11:11:24.561Z,43.75
2022-10-30T11:13:50.894Z,42.88
2022-10-30T11:16:17.244Z,43.30
2022-10-30T11:18:43.586Z,42.30
2022-10-30T11:21:09.918Z,42.75
2022-10-30T11:23:36.255Z,41.87
2022-10-30T11:26:02.599Z,42.91
2022-10-30T11:28:28.936Z,41.77
2022-10-30T11:30:55.264Z,41.05
2022-10-30T11:33:21.584Z,39.42
2022-10-30T11:35:47.909Z,41.09
2022-10-30T11:38:14.238Z,41.77
2022-10-30T11:40:40.576Z,39.51
2022-10-30T11:43:06.968Z,39.84
2022-10-30T11:45:33.317Z,39.45
2022-10-30T11:48:02.524Z,38.55
2022-10-30T11:50:25.953Z,38.29
2022-10-30T11:52:52.317Z,38.20
2022-10-30T11:55:18.666Z,37.99
2022-10-30T11:57:45.003Z,38.91
2022-10-30T12:00:11.346Z,38.15
2022-10-30T12:05:04.021Z,38.10
2022-10-30T12:07:30.364Z,37.95
2022-10-30T12:09:56.709Z,38.44
2022-10-30T12:12:23.044Z,37.58
2022-10-30T12:14:49.390Z,36.82
2022-10-30T12:17:15.739Z,36.42
2022-10-30T12:19:42.061Z,35.85
2022-10-30T12:22:09.866Z,36.09
2022-10-30T12:24:34.741Z,36.07
2022-10-30T12:27:01.078Z,35.57
2022-10-30T12:29:41.708Z,35.59
2022-10-30T12:31:53.719Z,35.53
2022-10-30T12:34:20.071Z,34.95
2022-10-30T12:36:46.459Z,35.02
2022-10-30T12:39:12.784Z,34.68
2022-10-30T12:41:39.137Z,34.69
2022-10-30T12:44:05.480Z,35.25
2022-10-30T12:46:31.796Z,34.67
2022-10-30T12:48:58.143Z,34.92
2022-10-30T12:51:24.487Z,36.00
2022-10-30T12:53:50.826Z,35.19
2022-10-30T12:56:17.193Z,34.74
2022-10-30T12:58:43.528Z,34.62
2022-10-30T13:01:09.925Z,34.17
2022-10-30T13:03:36.285Z,33.57
2022-10-30T13:06:02.666Z,33.28
2022-10-30T13:08:28.989Z,33.85
2022-10-30T13:10:55.322Z,33.79
2022-10-30T13:13:21.646Z,33.47
2022-10-30T13:15:47.992Z,33.46
2022-10-30T13:18:14.323Z,33.17
2022-10-30T13:20:40.649Z,33.61
2022-10-30T13:23:06.974Z,33.71
2022-10-30T13:25:33.365Z,33.77
2022-10-30T13:27:59.691Z,33.84
2022-10-30T13:30:26.037Z,33.72
2022-10-30T13:32:52.361Z,33.96
2022-10-30T13:35:18.680Z,33.90
2022-10-30T13:37:45.052Z,33.60
2022-10-30T13:40:11.368Z,34.04
2022-10-30T13:42:37.709Z,34.02
2022-10-30T13:45:04.024Z,34.69
2022-10-30T13:47:30.369Z,34.73
2022-10-30T13:49:56.808Z,34.37
2022-10-30T13:52:23.200Z,34.69
2022-10-30T13:54:49.471Z,34.70
2022-10-30T13:57:15.802Z,34.73
2022-10-30T13:59:42.122Z,34.78
2022-10-30T14:02:08.582Z,34.91
2022-10-30T14:04:34.788Z,35.29
2022-10-30T14:07:01.132Z,35.33
2022-10-30T14:09:27.451Z,35.77
2022-10-30T14:11:53.800Z,35.74
2022-10-30T14:14:20.113Z,35.51
2022-10-30T14:16:46.441Z,36.32
2022-10-30T14:19:12.760Z,36.76
2022-10-30T14:21:39.123Z,36.99
2022-10-30T14:24:05.510Z,36.89
2022-10-30T14:26:31.829Z,36.65
2022-10-30T14:28:58.150Z,37.29
2022-10-30T14:31:24.481Z,37.65
2022-10-30T14:33:50.830Z,37.43
2022-10-30T14:36:17.200Z,38.03
2022-10-30T14:38:43.522Z,37.92
2022-10-30T14:41:12.874Z,38.40
2022-10-30T14:43:36.204Z,38.21
2022-10-30T14:46:02.519Z,38.59
2022-10-30T14:48:28.855Z,39.01
2022-10-30T14:50:55.212Z,38.82
2022-10-30T14:53:21.521Z,38.94
2022-10-30T14:55:47.899Z,39.20
2022-10-30T14:58:14.241Z,39.73
2022-10-30T15:00:40.572Z,39.78
2022-10-30T15:03:06.914Z,41.13
2022-10-30T15:05:33.302Z,41.23
2022-10-30T15:07:59.897Z,41.01
2022-10-30T15:10:25.984Z,41.21
2022-10-30T15:12:52.294Z,41.96
2022-10-30T15:15:18.643Z,41.76
2022-10-30T15:17:44.946Z,41.88
2022-10-30T15:20:11.293Z,41.93
2022-10-30T15:22:37.614Z,42.05
2022-10-30T15:25:03.945Z,42.36
2022-10-30T15:27:30.291Z,42.40
2022-10-30T15:29:56.667Z,42.58
2022-10-30T15:32:23.004Z,42.64
2022-10-30T15:34:49.332Z,42.74
2022-10-30T15:37:15.690Z,43.30
2022-10-30T15:39:42.041Z,43.42
2022-10-30T15:42:08.377Z,43.51
2022-10-30T15:44:34.762Z,43.81
2022-10-30T15:47:01.169Z,43.63
2022-10-30T15:49:27.427Z,43.98
2022-10-30T15:51:53.757Z,44.01
2022-10-30T15:54:20.081Z,44.02
2022-10-30T15:57:17.925Z,44.31
2022-10-30T15:59:12.728Z,44.30
2022-10-30T16:01:39.253Z,44.44
2022-10-30T16:04:05.404Z,44.60
2022-10-30T16:06:31.729Z,45.25
2022-10-30T16:08:58.125Z,44.91
2022-10-30T16:11:24.473Z,45.12
2022-10-30T16:13:50.823Z,45.16
2022-10-30T16:16:17.657Z,45.12
2022-10-30T16:18:44.000Z,45.60
2022-10-30T16:21:10.338Z,45.81
2022-10-30T16:23:36.688Z,46.60
2022-10-30T16:26:03.002Z,46.90
2022-10-30T16:28:29.357Z,46.65
2022-10-30T16:30:55.695Z,46.90
2022-10-30T16:33:22.047Z,47.06
2022-10-30T16:35:54.652Z,47.16
2022-10-30T16:38:14.764Z,47.28
2022-10-30T16:40:41.085Z,47.31
2022-10-30T16:43:07.420Z,47.41
2022-10-30T16:45:33.770Z,47.42
2022-10-30T16:48:04.438Z,47.35
2022-10-30T16:50:26.452Z,47.66
2022-10-30T16:52:52.774Z,47.47
2022-10-30T16:55:19.095Z,47.58
2022-10-30T16:57:45.438Z,47.63
2022-10-30T17:00:11.841Z,47.99
2022-10-30T17:02:38.261Z,47.84
2022-10-30T17:05:04.506Z,47.57
2022-10-30T17:07:30.852Z,47.59
2022-10-30T17:09:57.165Z,47.74
2022-10-30T17:12:23.511Z,47.87
2022-10-30T17:14:49.851Z,48.01
2022-10-30T17:17:16.174Z,48.14
2022-10-30T17:19:42.550Z,48.15
2022-10-30T17:22:08.896Z,48.08
2022-10-30T17:24:35.215Z,47.77
2022-10-30T17:27:01.579Z,47.89
2022-10-30T17:29:27.895Z,48.11
2022-10-30T17:31:54.246Z,48.06
2022-10-30T17:34:20.571Z,47.85
2022-10-30T17:36:46.911Z,48.03
2022-10-30T17:39:13.266Z,48.19
2022-10-30T17:41:39.614Z,48.30
2022-10-30T17:44:06.942Z,48.48
2022-10-30T17:46:33.293Z,48.90
2022-10-30T17:48:59.666Z,48.83
2022-10-30T17:51:26.008Z,48.86
2022-10-30T17:53:52.327Z,48.58
2022-10-30T17:56:18.707Z,48.66
2022-10-30T17:58:45.038Z,48.61
2022-10-30T18:01:11.398Z,48.81
2022-10-30T18:03:37.758Z,48.85
2022-10-30T18:06:05.090Z,48.90
2022-10-30T18:08:31.425Z,48.62
2022-10-30T18:10:57.766Z,48.51
2022-10-30T18:13:24.086Z,48.62
2022-10-30T18:15:50.430Z,48.54
2022-10-30T18:18:16.774Z,48.74
2022-10-30T18:20:43.115Z,49.01
2022-10-30T18:23:12.769Z,48.95
2022-10-30T18:25:35.807Z,48.96
2022-10-30T18:28:02.151Z,48.88
2022-10-30T18:30:28.467Z,49.04
2022-10-30T18:32:54.795Z,49.08
2022-10-30T18:35:21.121Z,49.07
2022-10-30T18:37:47.475Z,48.98
2022-10-30T18:40:13.804Z,49.13
2022-10-30T18:42:40.175Z,48.89
2022-10-30T18:45:06.509Z,48.66
2022-10-30T18:47:32.848Z,48.96
2022-10-30T18:49:59.211Z,49.00
2022-10-30T18:52:25.552Z,50.38
2022-10-30T18:54:51.892Z,50.72
2022-10-30T18:57:18.237Z,50.62
2022-10-30T18:59:44.574Z,50.18
2022-10-30T19:02:11.000Z,50.66
2022-10-30T19:04:37.252Z,50.40
2022-10-30T19:07:03.585Z,51.57
2022-10-30T19:09:29.934Z,52.65
2022-10-30T19:11:56.259Z,52.02
2022-10-30T19:14:22.579Z,51.22
2022-10-30T19:16:48.962Z,50.90
2022-10-30T19:19:15.298Z,50.79
2022-10-30T19:21:41.638Z,50.87
2022-10-30T19:24:07.991Z,51.19
2022-10-30T19:26:34.334Z,51.04
2022-10-30T19:29:00.670Z,50.92
2022-10-30T19:31:26.985Z,50.58
2022-10-30T19:33:57.074Z,50.73
2022-10-30T19:36:19.702Z,50.49
2022-10-30T19:38:46.035Z,50.75
2022-10-30T19:41:12.356Z,50.41
2022-10-30T19:43:38.681Z,50.79
2022-10-30T19:46:05.043Z,50.61
2022-10-30T19:49:01.282Z,50.56
2022-10-30T19:50:57.726Z,50.77
2022-10-30T19:53:24.085Z,50.91
2022-10-30T19:55:50.434Z,50.75
2022-10-30T19:58:18.038Z,50.63
2022-10-30T20:00:43.124Z,50.67
2022-10-30T20:03:09.445Z,50.80
2022-10-30T20:05:35.755Z,50.82
2022-10-30T20:08:02.383Z,50.51
2022-10-30T20:10:28.452Z,50.75
2022-10-30T20:12:54.838Z,50.85
2022-10-30T20:15:21.158Z,50.74
2022-10-30T20:17:47.479Z,50.65
2022-10-30T20:20:13.820Z,50.86
2022-10-30T20:22:40.196Z,50.74
2022-10-30T20:25:06.515Z,50.71
2022-10-30T20:27:32.858Z,51.14
2022-10-30T20:29:59.202Z,51.25
2022-10-30T20:32:25.545Z,51.22
2022-10-30T20:34:51.874Z,51.21
2022-10-30T20:37:18.212Z,51.22
2022-10-30T20:39:44.569Z,51.23
2022-10-30T20:42:10.895Z,51.48
2022-10-30T20:44:37.221Z,51.50
2022-10-30T20:47:03.560Z,51.54
2022-10-30T20:49:29.907Z,51.62
2022-10-30T20:51:56.266Z,51.84
2022-10-30T20:54:22.609Z,51.52
2022-10-30T20:56:48.923Z,51.49
2022-10-30T20:59:15.275Z,51.55
2022-10-30T21:01:41.749Z,51.37
2022-10-30T21:04:07.933Z,51.33
2022-10-30T21:06:34.290Z,51.58
2022-10-30T21:09:00.642Z,51.63
2022-10-30T21:11:26.976Z,51.63
2022-10-30T21:13:53.320Z,51.49
2022-10-30T21:16:19.662Z,51.44
2022-10-30T21:18:45.998Z,51.82
2022-10-30T21:21:12.323Z,51.64
2022-10-30T21:23:38.633Z,51.43
2022-10-30T21:26:05.006Z,51.12
2022-10-30T21:28:31.343Z,51.17
2022-10-30T21:30:57.651Z,51.33
2022-10-30T21:33:24.057Z,51.44
2022-10-30T21:35:50.398Z,51.59
2022-10-30T21:38:16.719Z,51.41
2022-10-30T21:40:43.060Z,50.94
2022-10-30T21:43:09.732Z,51.22
2022-10-30T21:45:35.721Z,51.27
2022-10-30T21:48:02.064Z,51.14
2022-10-30T21:50:28.446Z,51.32
2022-10-30T21:52:54.779Z,51.19
2022-10-30T21:55:21.106Z,51.21
2022-10-30T21:57:47.476Z,51.39
2022-10-30T22:00:13.799Z,50.73
2022-10-30T22:02:40.123Z,51.22
2022-10-30T22:05:06.492Z,50.12
2022-10-30T22:07:32.811Z,51.13
2022-10-30T22:09:59.166Z,51.45
2022-10-30T22:12:25.532Z,50.65
2022-10-30T22:14:51.855Z,51.39
2022-10-30T22:17:18.205Z,51.48
2022-10-30T22:19:44.557Z,51.48
2022-10-30T22:22:10.914Z,51.46
2022-10-30T22:24:37.251Z,51.74
2022-10-30T22:27:03.584Z,51.54
2022-10-30T22:29:29.928Z,51.56
2022-10-30T22:31:56.252Z,51.61
2022-10-30T22:34:22.593Z,51.29
2022-10-30T22:36:48.961Z,51.47
2022-10-30T22:39:15.319Z,51.29
2022-10-30T22:41:41.622Z,51.11
2022-10-30T22:44:08.667Z,51.45
2022-10-30T22:46:34.324Z,51.29
2022-10-30T22:49:00.662Z,51.32
2022-10-30T22:51:27.025Z,51.28
2022-10-30T22:53:53.355Z,51.25
2022-10-30T22:56:19.704Z,50.93
2022-10-30T22:58:46.094Z,51.16
2022-10-30T23:01:12.386Z,51.81
2022-10-30T23:03:38.813Z,51.88
2022-10-30T23:06:05.090Z,51.72
2022-10-30T23:08:31.362Z,51.87
2022-10-30T23:10:57.681Z,51.72
2022-10-30T23:13:24.049Z,51.73
2022-10-30T23:15:50.359Z,51.55
2022-10-30T23:18:16.705Z,51.56
2022-10-30T23:20:43.064Z,51.79
2022-10-30T23:23:09.408Z,51.79
2022-10-30T23:25:35.728Z,51.66
2022-10-30T23:28:02.253Z,51.71
2022-10-30T23:30:28.428Z,51.68
2022-10-30T23:32:54.771Z,51.83
2022-10-30T23:35:21.130Z,51.91
2022-10-30T23:37:47.487Z,51.77
2022-10-30T23:40:13.840Z,51.37
2022-10-30T23:42:40.175Z,51.62
2022-10-30T23:45:06.538Z,51.56
2022-10-30T23:47:32.858Z,51.63
2022-10-30T23:49:59.199Z,51.76
2022-10-30T23:52:25.538Z,51.88
2022-10-30T23:54:51.924Z,51.98
2022-10-30T23:57:18.239Z,52.05
2022-10-30T23:59:44.587Z,51.99
